sensor_id;sensor_type;location;lat;lon;timestamp;temperature;humidity
4826;DHT22;2427;50.934;6.776;2023-02-08T00:02:18;-1.50;99.90
4826;DHT22;2427;50.934;6.776;2023-02-08T00:04:43;-1.50;99.90
4826;DHT22;2427;50.934;6.776;2023-02-08T00:07:09;-1.60;99.90
4826;DHT22;2427;50.934;6.776;2023-02-08T00:09:35;-1.60;99.90
4826;DHT22;2427;50.934;6.776;2023-02-08T00:12:00;-1.60;99.90
4826;DHT22;2427;50.934;6.776;2023-02-08T00:14:26;-1.60;99.90
4826;DHT22;2427;50.934;6.776;2023-02-08T00:16:51;-1.60;99.90
4826;DHT22;2427;50.934;6.776;2023-02-08T00:19:17;-1.60;99.90
4826;DHT22;2427;50.934;6.776;2023-02-08T00:21:42;-1.60;1.00
4826;DHT22;2427;50.934;6.776;2023-02-08T00:24:08;-1.70;1.00
4826;DHT22;2427;50.934;6.776;2023-02-08T00:26:33;-1.70;1.00
4826;DHT22;2427;50.934;6.776;2023-02-08T00:28:59;-1.70;1.00
4826;DHT22;2427;50.934;6.776;2023-02-08T00:31:24;-1.70;1.00
4826;DHT22;2427;50.934;6.776;2023-02-08T00:33:50;-1.70;1.00
4826;DHT22;2427;50.934;6.776;2023-02-08T00:36:15;-1.70;1.00
4826;DHT22;2427;50.934;6.776;2023-02-08T00:38:41;-1.70;99.90
4826;DHT22;2427;50.934;6.776;2023-02-08T00:41:07;-1.80;99.90
4826;DHT22;2427;50.934;6.776;2023-02-08T00:43:33;-1.80;99.90
4826;DHT22;2427;50.934;6.776;2023-02-08T00:45:59;-1.80;1.00
4826;DHT22;2427;50.934;6.776;2023-02-08T00:48:25;-1.90;1.00
4826;DHT22;2427;50.934;6.776;2023-02-08T00:53:23;-1.80;1.00
4826;DHT22;2427;50.934;6.776;2023-02-08T00:55:55;-1.80;1.00
4826;DHT22;2427;50.934;6.776;2023-02-08T00:58:21;-1.80;1.00
4826;DHT22;2427;50.934;6.776;2023-02-08T01:00:50;-1.80;1.00
4826;DHT22;2427;50.934;6.776;2023-02-08T01:03:17;-1.80;1.00
4826;DHT22;2427;50.934;6.776;2023-02-08T01:05:43;-1.80;1.00
4826;DHT22;2427;50.934;6.776;2023-02-08T01:08:08;-1.80;99.90
4826;DHT22;2427;50.934;6.776;2023-02-08T01:10:34;-1.80;99.90
4826;DHT22;2427;50.934;6.776;2023-02-08T01:12:59;-1.80;99.90
4826;DHT22;2427;50.934;6.776;2023-02-08T01:15:26;-1.80;99.90
4826;DHT22;2427;50.934;6.776;2023-02-08T01:17:55;-1.80;99.90
4826;DHT22;2427;50.934;6.776;2023-02-08T01:20:21;-1.80;99.90
4826;DHT22;2427;50.934;6.776;2023-02-08T01:22:46;-1.80;99.90
4826;DHT22;2427;50.934;6.776;2023-02-08T01:25:12;-1.80;99.90
4826;DHT22;2427;50.934;6.776;2023-02-08T01:27:38;-1.70;99.90
4826;DHT22;2427;50.934;6.776;2023-02-08T01:30:04;-1.80;99.90
4826;DHT22;2427;50.934;6.776;2023-02-08T01:32:30;-1.80;99.90
4826;DHT22;2427;50.934;6.776;2023-02-08T01:34:55;-1.80;99.90
4826;DHT22;2427;50.934;6.776;2023-02-08T01:37:21;-1.80;99.90
4826;DHT22;2427;50.934;6.776;2023-02-08T01:39:46;-1.80;99.90
4826;DHT22;2427;50.934;6.776;2023-02-08T01:42:13;-1.90;99.90
4826;DHT22;2427;50.934;6.776;2023-02-08T01:47:49;-1.90;99.90
4826;DHT22;2427;50.934;6.776;2023-02-08T01:50:18;-1.90;99.90
4826;DHT22;2427;50.934;6.776;2023-02-08T01:52:46;-2.00;99.90
4826;DHT22;2427;50.934;6.776;2023-02-08T01:55:18;-2.00;99.90
4826;DHT22;2427;50.934;6.776;2023-02-08T01:57:45;-2.00;99.90
4826;DHT22;2427;50.934;6.776;2023-02-08T02:10:47;-2.10;99.90
4826;DHT22;2427;50.934;6.776;2023-02-08T02:13:20;-2.10;1.00
4826;DHT22;2427;50.934;6.776;2023-02-08T02:15:46;-2.10;1.00
4826;DHT22;2427;50.934;6.776;2023-02-08T02:18:20;-2.10;1.00
4826;DHT22;2427;50.934;6.776;2023-02-08T02:24:07;-2.20;1.00
4826;DHT22;2427;50.934;6.776;2023-02-08T02:40:33;-2.30;1.00
4826;DHT22;2427;50.934;6.776;2023-02-08T02:46:42;-2.30;1.00
4826;DHT22;2427;50.934;6.776;2023-02-08T02:54:55;-2.20;1.00
4826;DHT22;2427;50.934;6.776;2023-02-08T02:57:29;-2.20;1.00
4826;DHT22;2427;50.934;6.776;2023-02-08T02:59:58;-2.20;1.00
4826;DHT22;2427;50.934;6.776;2023-02-08T03:02:31;-2.20;1.00
4826;DHT22;2427;50.934;6.776;2023-02-08T03:05:00;-2.20;1.00
4826;DHT22;2427;50.934;6.776;2023-02-08T03:13:31;-2.20;99.90
4826;DHT22;2427;50.934;6.776;2023-02-08T03:16:17;-2.20;99.90
4826;DHT22;2427;50.934;6.776;2023-02-08T03:21:45;-2.30;99.90
4826;DHT22;2427;50.934;6.776;2023-02-08T03:24:30;-2.30;1.00
4826;DHT22;2427;50.934;6.776;2023-02-08T03:32:11;-2.40;1.00
4826;DHT22;2427;50.934;6.776;2023-02-08T03:37:40;-2.40;1.00
4826;DHT22;2427;50.934;6.776;2023-02-08T03:40:17;-2.40;1.00
4826;DHT22;2427;50.934;6.776;2023-02-08T03:42:46;-2.40;1.00
4826;DHT22;2427;50.934;6.776;2023-02-08T03:45:17;-2.40;1.00
4826;DHT22;2427;50.934;6.776;2023-02-08T03:47:46;-2.50;1.00
4826;DHT22;2427;50.934;6.776;2023-02-08T03:50:15;-2.40;1.00
4826;DHT22;2427;50.934;6.776;2023-02-08T03:52:51;-2.40;1.00
4826;DHT22;2427;50.934;6.776;2023-02-08T03:55:20;-2.40;1.00
4826;DHT22;2427;50.934;6.776;2023-02-08T03:58:17;-2.40;1.00
4826;DHT22;2427;50.934;6.776;2023-02-08T04:00:53;-2.30;1.00
4826;DHT22;2427;50.934;6.776;2023-02-08T04:03:23;-2.30;1.00
4826;DHT22;2427;50.934;6.776;2023-02-08T04:05:49;-2.30;1.00
4826;DHT22;2427;50.934;6.776;2023-02-08T04:08:15;-2.30;1.00
4826;DHT22;2427;50.934;6.776;2023-02-08T04:10:40;-2.30;1.00
4826;DHT22;2427;50.934;6.776;2023-02-08T04:13:06;-2.30;1.00
4826;DHT22;2427;50.934;6.776;2023-02-08T04:15:32;-2.30;1.00
4826;DHT22;2427;50.934;6.776;2023-02-08T04:17:57;-2.30;1.00
4826;DHT22;2427;50.934;6.776;2023-02-08T04:20:23;-2.30;1.00
4826;DHT22;2427;50.934;6.776;2023-02-08T04:22:48;-2.30;1.00
4826;DHT22;2427;50.934;6.776;2023-02-08T04:25:14;-2.30;1.00
4826;DHT22;2427;50.934;6.776;2023-02-08T04:27:39;-2.30;1.00
4826;DHT22;2427;50.934;6.776;2023-02-08T04:30:06;-2.40;1.00
4826;DHT22;2427;50.934;6.776;2023-02-08T04:32:32;-2.40;1.00
4826;DHT22;2427;50.934;6.776;2023-02-08T04:34:57;-2.40;1.00
4826;DHT22;2427;50.934;6.776;2023-02-08T04:37:23;-2.40;1.00
4826;DHT22;2427;50.934;6.776;2023-02-08T04:39:49;-2.40;1.00
4826;DHT22;2427;50.934;6.776;2023-02-08T04:42:14;-2.50;1.00
4826;DHT22;2427;50.934;6.776;2023-02-08T04:44:40;-2.50;1.00
4826;DHT22;2427;50.934;6.776;2023-02-08T04:47:05;-2.50;1.00
4826;DHT22;2427;50.934;6.776;2023-02-08T04:49:31;-2.60;1.00
4826;DHT22;2427;50.934;6.776;2023-02-08T04:51:57;-2.60;1.00
4826;DHT22;2427;50.934;6.776;2023-02-08T04:54:22;-2.70;1.00
4826;DHT22;2427;50.934;6.776;2023-02-08T04:56:48;-2.70;1.00
4826;DHT22;2427;50.934;6.776;2023-02-08T04:59:14;-2.70;1.00
4826;DHT22;2427;50.934;6.776;2023-02-08T05:01:39;-2.70;1.00
4826;DHT22;2427;50.934;6.776;2023-02-08T05:04:05;-2.70;1.00
4826;DHT22;2427;50.934;6.776;2023-02-08T05:06:30;-2.70;1.00
4826;DHT22;2427;50.934;6.776;2023-02-08T05:08:56;-2.70;1.00
4826;DHT22;2427;50.934;6.776;2023-02-08T05:11:23;-2.70;1.00
4826;DHT22;2427;50.934;6.776;2023-02-08T05:13:49;-2.80;1.00
4826;DHT22;2427;50.934;6.776;2023-02-08T05:16:15;-2.80;1.00
4826;DHT22;2427;50.934;6.776;2023-02-08T05:18:41;-2.80;1.00
4826;DHT22;2427;50.934;6.776;2023-02-08T05:21:07;-2.80;1.00
4826;DHT22;2427;50.934;6.776;2023-02-08T05:23:33;-2.80;1.00
4826;DHT22;2427;50.934;6.776;2023-02-08T05:25:58;-2.80;1.00
4826;DHT22;2427;50.934;6.776;2023-02-08T05:28:24;-2.70;1.00
4826;DHT22;2427;50.934;6.776;2023-02-08T05:30:50;-2.80;1.00
4826;DHT22;2427;50.934;6.776;2023-02-08T05:33:16;-2.80;1.00
4826;DHT22;2427;50.934;6.776;2023-02-08T05:35:44;-2.80;1.00
4826;DHT22;2427;50.934;6.776;2023-02-08T05:38:09;-2.70;1.00
4826;DHT22;2427;50.934;6.776;2023-02-08T05:40:35;-2.70;1.00
4826;DHT22;2427;50.934;6.776;2023-02-08T05:43:01;-2.80;1.00
4826;DHT22;2427;50.934;6.776;2023-02-08T05:45:26;-2.80;1.00
4826;DHT22;2427;50.934;6.776;2023-02-08T05:47:52;-2.80;6.40
4826;DHT22;2427;50.934;6.776;2023-02-08T05:50:18;-2.80;15.00
4826;DHT22;2427;50.934;6.776;2023-02-08T05:52:43;-2.90;41.60
4826;DHT22;2427;50.934;6.776;2023-02-08T05:55:09;-2.90;32.80
4826;DHT22;2427;50.934;6.776;2023-02-08T05:57:34;-2.90;46.80
4826;DHT22;2427;50.934;6.776;2023-02-08T06:00:02;-2.90;66.90
4826;DHT22;2427;50.934;6.776;2023-02-08T06:02:28;-2.90;82.50
4826;DHT22;2427;50.934;6.776;2023-02-08T06:04:53;-2.90;73.10
4826;DHT22;2427;50.934;6.776;2023-02-08T06:07:19;-2.90;60.10
4826;DHT22;2427;50.934;6.776;2023-02-08T06:09:44;-2.90;90.40
4826;DHT22;2427;50.934;6.776;2023-02-08T06:12:10;-2.90;99.90
4826;DHT22;2427;50.934;6.776;2023-02-08T06:14:35;-2.90;54.90
4826;DHT22;2427;50.934;6.776;2023-02-08T06:17:01;-2.90;39.80
4826;DHT22;2427;50.934;6.776;2023-02-08T06:19:26;-2.90;13.40
4826;DHT22;2427;50.934;6.776;2023-02-08T06:21:53;-2.90;14.30
4826;DHT22;2427;50.934;6.776;2023-02-08T06:24:19;-2.90;1.00
4826;DHT22;2427;50.934;6.776;2023-02-08T06:26:45;-2.90;3.60
4826;DHT22;2427;50.934;6.776;2023-02-08T06:29:10;-2.90;21.60
4826;DHT22;2427;50.934;6.776;2023-02-08T06:31:36;-2.80;99.90
4826;DHT22;2427;50.934;6.776;2023-02-08T06:34:01;-2.50;99.90
4826;DHT22;2427;50.934;6.776;2023-02-08T06:36:27;-2.30;99.90
4826;DHT22;2427;50.934;6.776;2023-02-08T06:38:52;-2.30;99.90
4826;DHT22;2427;50.934;6.776;2023-02-08T06:41:18;-2.40;1.00
4826;DHT22;2427;50.934;6.776;2023-02-08T06:43:44;-2.50;1.00
4826;DHT22;2427;50.934;6.776;2023-02-08T06:46:09;-2.60;99.90
4826;DHT22;2427;50.934;6.776;2023-02-08T06:48:35;-2.70;99.90
4826;DHT22;2427;50.934;6.776;2023-02-08T06:51:01;-2.80;1.00
4826;DHT22;2427;50.934;6.776;2023-02-08T06:53:27;-2.80;1.00
4826;DHT22;2427;50.934;6.776;2023-02-08T06:55:52;-2.90;1.00
4826;DHT22;2427;50.934;6.776;2023-02-08T06:58:18;-2.90;1.00
4826;DHT22;2427;50.934;6.776;2023-02-08T07:00:44;-2.90;1.00
4826;DHT22;2427;50.934;6.776;2023-02-08T07:03:11;-2.90;99.90
4826;DHT22;2427;50.934;6.776;2023-02-08T07:05:37;-2.90;99.90
4826;DHT22;2427;50.934;6.776;2023-02-08T07:08:04;-2.90;99.90
4826;DHT22;2427;50.934;6.776;2023-02-08T07:10:30;-2.90;99.90
4826;DHT22;2427;50.934;6.776;2023-02-08T07:12:56;-2.80;99.90
4826;DHT22;2427;50.934;6.776;2023-02-08T07:15:21;-2.80;99.10
4826;DHT22;2427;50.934;6.776;2023-02-08T07:17:47;-2.80;1.30
4826;DHT22;2427;50.934;6.776;2023-02-08T07:20:14;-2.80;1.00
4826;DHT22;2427;50.934;6.776;2023-02-08T07:22:40;-2.70;1.00
4826;DHT22;2427;50.934;6.776;2023-02-08T07:25:07;-2.70;1.00
4826;DHT22;2427;50.934;6.776;2023-02-08T07:27:33;-2.60;1.00
4826;DHT22;2427;50.934;6.776;2023-02-08T07:29:59;-2.60;1.00
4826;DHT22;2427;50.934;6.776;2023-02-08T07:32:25;-2.60;1.00
4826;DHT22;2427;50.934;6.776;2023-02-08T07:34:50;-2.50;1.00
4826;DHT22;2427;50.934;6.776;2023-02-08T07:37:16;-2.50;1.00
4826;DHT22;2427;50.934;6.776;2023-02-08T07:39:42;-2.40;1.00
4826;DHT22;2427;50.934;6.776;2023-02-08T07:42:08;-2.40;1.00
4826;DHT22;2427;50.934;6.776;2023-02-08T07:44:36;-2.30;1.00
4826;DHT22;2427;50.934;6.776;2023-02-08T07:47:02;-2.30;1.00
4826;DHT22;2427;50.934;6.776;2023-02-08T07:49:28;-2.20;1.00
4826;DHT22;2427;50.934;6.776;2023-02-08T07:51:54;-2.20;1.00
4826;DHT22;2427;50.934;6.776;2023-02-08T07:54:19;-2.20;1.00
4826;DHT22;2427;50.934;6.776;2023-02-08T07:56:45;-2.10;1.00
4826;DHT22;2427;50.934;6.776;2023-02-08T07:59:11;-2.00;1.00
4826;DHT22;2427;50.934;6.776;2023-02-08T08:01:36;-1.80;1.00
4826;DHT22;2427;50.934;6.776;2023-02-08T08:04:02;-1.70;1.00
4826;DHT22;2427;50.934;6.776;2023-02-08T08:06:28;-1.60;99.90
4826;DHT22;2427;50.934;6.776;2023-02-08T08:08:53;-1.60;99.90
4826;DHT22;2427;50.934;6.776;2023-02-08T08:11:20;-1.60;99.90
4826;DHT22;2427;50.934;6.776;2023-02-08T08:13:46;-1.50;99.90
4826;DHT22;2427;50.934;6.776;2023-02-08T08:16:12;-1.50;99.90
4826;DHT22;2427;50.934;6.776;2023-02-08T08:18:38;-1.50;99.90
4826;DHT22;2427;50.934;6.776;2023-02-08T08:21:04;-1.40;99.90
4826;DHT22;2427;50.934;6.776;2023-02-08T08:23:30;-1.40;99.90
4826;DHT22;2427;50.934;6.776;2023-02-08T08:25:58;-1.30;99.90
4826;DHT22;2427;50.934;6.776;2023-02-08T08:28:23;-1.20;13.40
4826;DHT22;2427;50.934;6.776;2023-02-08T08:30:49;-1.20;1.00
4826;DHT22;2427;50.934;6.776;2023-02-08T08:33:15;-1.10;1.00
4826;DHT22;2427;50.934;6.776;2023-02-08T08:35:41;-1.00;1.00
4826;DHT22;2427;50.934;6.776;2023-02-08T08:38:08;-1.00;1.00
4826;DHT22;2427;50.934;6.776;2023-02-08T08:40:34;-0.90;1.00
4826;DHT22;2427;50.934;6.776;2023-02-08T08:43:00;-0.80;1.00
4826;DHT22;2427;50.934;6.776;2023-02-08T08:45:25;-0.80;1.00
4826;DHT22;2427;50.934;6.776;2023-02-08T08:47:51;-0.70;1.00
4826;DHT22;2427;50.934;6.776;2023-02-08T08:50:17;-0.70;1.00
4826;DHT22;2427;50.934;6.776;2023-02-08T08:52:43;-0.60;1.00
4826;DHT22;2427;50.934;6.776;2023-02-08T08:55:08;-0.60;1.00
4826;DHT22;2427;50.934;6.776;2023-02-08T08:57:34;-0.50;1.00
4826;DHT22;2427;50.934;6.776;2023-02-08T08:59:59;-0.40;1.00
4826;DHT22;2427;50.934;6.776;2023-02-08T09:02:25;-0.40;1.00
4826;DHT22;2427;50.934;6.776;2023-02-08T09:04:51;-0.40;1.00
4826;DHT22;2427;50.934;6.776;2023-02-08T09:07:16;-0.30;1.00
4826;DHT22;2427;50.934;6.776;2023-02-08T09:09:42;-0.20;1.00
4826;DHT22;2427;50.934;6.776;2023-02-08T09:12:13;-0.20;1.00
4826;DHT22;2427;50.934;6.776;2023-02-08T09:14:39;-0.10;1.00
4826;DHT22;2427;50.934;6.776;2023-02-08T09:17:04;0.00;1.00
4826;DHT22;2427;50.934;6.776;2023-02-08T09:19:30;0.10;1.00
4826;DHT22;2427;50.934;6.776;2023-02-08T09:21:55;0.20;1.00
4826;DHT22;2427;50.934;6.776;2023-02-08T09:24:23;0.30;1.00
4826;DHT22;2427;50.934;6.776;2023-02-08T09:26:48;0.40;1.00
4826;DHT22;2427;50.934;6.776;2023-02-08T09:29:14;0.40;1.00
4826;DHT22;2427;50.934;6.776;2023-02-08T09:31:39;0.50;1.00
4826;DHT22;2427;50.934;6.776;2023-02-08T09:34:06;0.50;1.00
4826;DHT22;2427;50.934;6.776;2023-02-08T09:36:37;0.60;1.00
4826;DHT22;2427;50.934;6.776;2023-02-08T09:39:07;0.60;1.00
4826;DHT22;2427;50.934;6.776;2023-02-08T09:47:28;0.90;1.00
4826;DHT22;2427;50.934;6.776;2023-02-08T09:50:05;1.00;1.00
4826;DHT22;2427;50.934;6.776;2023-02-08T09:52:41;1.10;1.00
4826;DHT22;2427;50.934;6.776;2023-02-08T09:57:57;1.30;1.00
4826;DHT22;2427;50.934;6.776;2023-02-08T10:00:41;1.40;1.00
4826;DHT22;2427;50.934;6.776;2023-02-08T10:03:20;1.50;1.00
4826;DHT22;2427;50.934;6.776;2023-02-08T10:05:48;1.50;1.00
4826;DHT22;2427;50.934;6.776;2023-02-08T10:08:13;1.60;99.90
4826;DHT22;2427;50.934;6.776;2023-02-08T10:10:55;1.70;99.90
4826;DHT22;2427;50.934;6.776;2023-02-08T10:19:32;1.90;99.90
4826;DHT22;2427;50.934;6.776;2023-02-08T10:22:15;2.00;99.90
4826;DHT22;2427;50.934;6.776;2023-02-08T10:33:06;2.40;99.90
4826;DHT22;2427;50.934;6.776;2023-02-08T10:35:39;2.50;99.90
4826;DHT22;2427;50.934;6.776;2023-02-08T10:40:47;2.80;99.90
4826;DHT22;2427;50.934;6.776;2023-02-08T10:49:14;3.30;99.90
4826;DHT22;2427;50.934;6.776;2023-02-08T10:51:41;3.50;99.90
4826;DHT22;2427;50.934;6.776;2023-02-08T10:54:11;3.60;99.90
4826;DHT22;2427;50.934;6.776;2023-02-08T10:56:51;3.70;99.90
4826;DHT22;2427;50.934;6.776;2023-02-08T10:59:25;3.90;99.90
4826;DHT22;2427;50.934;6.776;2023-02-08T11:01:52;4.00;99.90
4826;DHT22;2427;50.934;6.776;2023-02-08T11:04:18;4.10;99.90
4826;DHT22;2427;50.934;6.776;2023-02-08T11:06:46;4.20;99.90
4826;DHT22;2427;50.934;6.776;2023-02-08T11:11:48;4.60;99.90
4826;DHT22;2427;50.934;6.776;2023-02-08T11:14:19;4.70;99.90
4826;DHT22;2427;50.934;6.776;2023-02-08T11:16:52;4.80;99.90
4826;DHT22;2427;50.934;6.776;2023-02-08T11:19:36;5.00;99.90
4826;DHT22;2427;50.934;6.776;2023-02-08T11:22:14;5.10;99.90
4826;DHT22;2427;50.934;6.776;2023-02-08T11:24:41;5.20;99.90
4826;DHT22;2427;50.934;6.776;2023-02-08T11:27:37;5.30;99.90
4826;DHT22;2427;50.934;6.776;2023-02-08T11:32:41;5.60;99.90
4826;DHT22;2427;50.934;6.776;2023-02-08T11:35:18;5.70;99.90
4826;DHT22;2427;50.934;6.776;2023-02-08T11:37:55;5.80;99.90
4826;DHT22;2427;50.934;6.776;2023-02-08T11:40:24;6.10;99.90
4826;DHT22;2427;50.934;6.776;2023-02-08T11:42:52;6.20;99.90
4826;DHT22;2427;50.934;6.776;2023-02-08T11:45:23;6.30;99.90
4826;DHT22;2427;50.934;6.776;2023-02-08T11:47:50;6.70;99.90
4826;DHT22;2427;50.934;6.776;2023-02-08T11:50:25;7.00;99.90
4826;DHT22;2427;50.934;6.776;2023-02-08T11:52:57;7.30;99.90
4826;DHT22;2427;50.934;6.776;2023-02-08T11:55:26;7.40;99.90
4826;DHT22;2427;50.934;6.776;2023-02-08T12:00:21;7.90;99.90
4826;DHT22;2427;50.934;6.776;2023-02-08T12:02:49;8.50;99.90
4826;DHT22;2427;50.934;6.776;2023-02-08T12:05:21;9.60;99.90
4826;DHT22;2427;50.934;6.776;2023-02-08T12:10:57;12.80;99.90
4826;DHT22;2427;50.934;6.776;2023-02-08T12:13:37;14.40;99.90
4826;DHT22;2427;50.934;6.776;2023-02-08T12:16:33;15.70;99.90
4826;DHT22;2427;50.934;6.776;2023-02-08T12:22:10;17.50;99.90
4826;DHT22;2427;50.934;6.776;2023-02-08T12:31:03;19.00;99.90
4826;DHT22;2427;50.934;6.776;2023-02-08T12:33:49;18.90;99.90
4826;DHT22;2427;50.934;6.776;2023-02-08T12:54:06;23.70;99.90
4826;DHT22;2427;50.934;6.776;2023-02-08T12:56:40;23.80;99.90
4826;DHT22;2427;50.934;6.776;2023-02-08T12:59:57;23.70;99.90
4826;DHT22;2427;50.934;6.776;2023-02-08T13:01:59;23.80;99.90
4826;DHT22;2427;50.934;6.776;2023-02-08T13:04:50;24.40;99.90
4826;DHT22;2427;50.934;6.776;2023-02-08T13:07:25;24.50;99.90
4826;DHT22;2427;50.934;6.776;2023-02-08T13:12:31;24.90;99.90
4826;DHT22;2427;50.934;6.776;2023-02-08T13:15:06;24.60;99.90
4826;DHT22;2427;50.934;6.776;2023-02-08T13:17:44;25.10;99.90
4826;DHT22;2427;50.934;6.776;2023-02-08T13:25:55;25.00;99.90
4826;DHT22;2427;50.934;6.776;2023-02-08T13:28:24;25.30;99.90
4826;DHT22;2427;50.934;6.776;2023-02-08T13:31:03;25.90;99.90
4826;DHT22;2427;50.934;6.776;2023-02-08T13:33:42;25.80;99.90
4826;DHT22;2427;50.934;6.776;2023-02-08T13:36:39;25.80;99.90
4826;DHT22;2427;50.934;6.776;2023-02-08T13:39:29;25.90;99.90
4826;DHT22;2427;50.934;6.776;2023-02-08T13:41:55;26.60;99.90
4826;DHT22;2427;50.934;6.776;2023-02-08T13:44:31;26.60;99.90
4826;DHT22;2427;50.934;6.776;2023-02-08T13:46:56;27.00;99.90
4826;DHT22;2427;50.934;6.776;2023-02-08T13:52:47;27.50;99.90
4826;DHT22;2427;50.934;6.776;2023-02-08T14:00:33;26.60;99.90
4826;DHT22;2427;50.934;6.776;2023-02-08T14:03:10;27.00;99.90
4826;DHT22;2427;50.934;6.776;2023-02-08T14:05:53;26.70;99.90
4826;DHT22;2427;50.934;6.776;2023-02-08T14:11:21;26.90;99.90
4826;DHT22;2427;50.934;6.776;2023-02-08T14:14:11;27.40;99.90
4826;DHT22;2427;50.934;6.776;2023-02-08T14:16:40;27.50;99.90
4826;DHT22;2427;50.934;6.776;2023-02-08T14:21:45;26.90;99.80
4826;DHT22;2427;50.934;6.776;2023-02-08T14:24:39;26.80;98.20
4826;DHT22;2427;50.934;6.776;2023-02-08T14:27:23;26.50;95.70
4826;DHT22;2427;50.934;6.776;2023-02-08T14:32:43;25.90;93.20
4826;DHT22;2427;50.934;6.776;2023-02-08T14:35:22;25.80;91.90
4826;DHT22;2427;50.934;6.776;2023-02-08T14:38:30;25.00;88.80
4826;DHT22;2427;50.934;6.776;2023-02-08T14:40:48;24.90;86.50
4826;DHT22;2427;50.934;6.776;2023-02-08T14:45:43;24.20;79.40
4826;DHT22;2427;50.934;6.776;2023-02-08T14:56:06;18.20;48.40
4826;DHT22;2427;50.934;6.776;2023-02-08T14:58:56;16.30;40.70
4826;DHT22;2427;50.934;6.776;2023-02-08T15:03:55;13.40;28.90
4826;DHT22;2427;50.934;6.776;2023-02-08T15:08:56;11.90;25.60
4826;DHT22;2427;50.934;6.776;2023-02-08T15:11:25;11.30;24.20
4826;DHT22;2427;50.934;6.776;2023-02-08T15:13:54;10.90;23.00
4826;DHT22;2427;50.934;6.776;2023-02-08T15:16:20;10.50;22.90
4826;DHT22;2427;50.934;6.776;2023-02-08T15:18:47;10.10;21.10
4826;DHT22;2427;50.934;6.776;2023-02-08T15:21:21;9.60;21.10
4826;DHT22;2427;50.934;6.776;2023-02-08T15:24:21;9.30;21.40
4826;DHT22;2427;50.934;6.776;2023-02-08T15:26:52;9.00;21.50
4826;DHT22;2427;50.934;6.776;2023-02-08T15:29:20;8.70;21.70
4826;DHT22;2427;50.934;6.776;2023-02-08T15:31:47;8.50;21.90
4826;DHT22;2427;50.934;6.776;2023-02-08T15:34:13;8.30;21.90
4826;DHT22;2427;50.934;6.776;2023-02-08T15:36:38;8.10;22.60
4826;DHT22;2427;50.934;6.776;2023-02-08T15:39:35;7.90;22.00
4826;DHT22;2427;50.934;6.776;2023-02-08T15:42:03;7.80;22.50
4826;DHT22;2427;50.934;6.776;2023-02-08T15:44:31;7.60;22.80
4826;DHT22;2427;50.934;6.776;2023-02-08T15:47:03;7.40;23.40
4826;DHT22;2427;50.934;6.776;2023-02-08T15:49:38;7.20;23.50
4826;DHT22;2427;50.934;6.776;2023-02-08T15:52:04;7.10;23.10
4826;DHT22;2427;50.934;6.776;2023-02-08T15:54:30;6.90;23.90
4826;DHT22;2427;50.934;6.776;2023-02-08T15:57:06;6.80;24.10
4826;DHT22;2427;50.934;6.776;2023-02-08T15:59:36;6.70;25.20
4826;DHT22;2427;50.934;6.776;2023-02-08T16:02:28;6.60;24.80
4826;DHT22;2427;50.934;6.776;2023-02-08T16:04:55;6.40;26.00
4826;DHT22;2427;50.934;6.776;2023-02-08T16:07:38;6.20;26.20
4826;DHT22;2427;50.934;6.776;2023-02-08T16:10:06;6.10;26.80
4826;DHT22;2427;50.934;6.776;2023-02-08T16:12:33;6.00;27.40
4826;DHT22;2427;50.934;6.776;2023-02-08T16:14:59;5.90;27.90
4826;DHT22;2427;50.934;6.776;2023-02-08T16:17:44;5.80;28.70
4826;DHT22;2427;50.934;6.776;2023-02-08T16:20:21;5.60;29.00
4826;DHT22;2427;50.934;6.776;2023-02-08T16:25:45;5.40;31.80
4826;DHT22;2427;50.934;6.776;2023-02-08T16:30:53;5.20;32.80
4826;DHT22;2427;50.934;6.776;2023-02-08T16:33:19;5.10;34.30
4826;DHT22;2427;50.934;6.776;2023-02-08T16:35:45;5.00;35.20
4826;DHT22;2427;50.934;6.776;2023-02-08T16:38:20;4.90;36.50
4826;DHT22;2427;50.934;6.776;2023-02-08T16:40:51;4.80;37.60
4826;DHT22;2427;50.934;6.776;2023-02-08T16:48:50;4.50;41.00
4826;DHT22;2427;50.934;6.776;2023-02-08T16:51:34;4.40;41.90
4826;DHT22;2427;50.934;6.776;2023-02-08T16:54:05;4.30;43.50
4826;DHT22;2427;50.934;6.776;2023-02-08T16:56:34;4.20;44.80
4826;DHT22;2427;50.934;6.776;2023-02-08T16:59:00;4.10;45.10
4826;DHT22;2427;50.934;6.776;2023-02-08T17:01:25;4.10;46.80
4826;DHT22;2427;50.934;6.776;2023-02-08T17:03:53;4.00;47.90
4826;DHT22;2427;50.934;6.776;2023-02-08T17:06:33;3.90;49.50
4826;DHT22;2427;50.934;6.776;2023-02-08T17:09:00;3.80;50.40
4826;DHT22;2427;50.934;6.776;2023-02-08T17:11:26;3.80;52.10
4826;DHT22;2427;50.934;6.776;2023-02-08T17:13:52;3.70;66.10
4826;DHT22;2427;50.934;6.776;2023-02-08T17:16:24;3.70;54.30
4826;DHT22;2427;50.934;6.776;2023-02-08T17:18:50;3.60;55.60
4826;DHT22;2427;50.934;6.776;2023-02-08T17:21:16;3.50;56.70
4826;DHT22;2427;50.934;6.776;2023-02-08T17:23:42;3.50;57.40
4826;DHT22;2427;50.934;6.776;2023-02-08T17:26:26;3.50;58.10
4826;DHT22;2427;50.934;6.776;2023-02-08T17:28:53;3.40;59.10
4826;DHT22;2427;50.934;6.776;2023-02-08T17:31:19;3.30;59.80
4826;DHT22;2427;50.934;6.776;2023-02-08T17:33:45;3.20;61.00
4826;DHT22;2427;50.934;6.776;2023-02-08T17:36:12;3.20;63.90
4826;DHT22;2427;50.934;6.776;2023-02-08T17:38:39;3.10;65.30
4826;DHT22;2427;50.934;6.776;2023-02-08T17:41:17;3.00;68.80
4826;DHT22;2427;50.934;6.776;2023-02-08T17:43:43;2.90;71.10
4826;DHT22;2427;50.934;6.776;2023-02-08T17:46:15;2.80;72.60
4826;DHT22;2427;50.934;6.776;2023-02-08T17:48:41;2.70;74.50
4826;DHT22;2427;50.934;6.776;2023-02-08T17:51:12;2.70;78.30
4826;DHT22;2427;50.934;6.776;2023-02-08T17:53:38;2.60;82.70
4826;DHT22;2427;50.934;6.776;2023-02-08T17:56:09;2.50;86.90
4826;DHT22;2427;50.934;6.776;2023-02-08T17:58:35;2.40;88.50
4826;DHT22;2427;50.934;6.776;2023-02-08T18:01:01;2.40;90.40
4826;DHT22;2427;50.934;6.776;2023-02-08T18:03:26;2.30;90.80
4826;DHT22;2427;50.934;6.776;2023-02-08T18:05:56;2.20;92.90
4826;DHT22;2427;50.934;6.776;2023-02-08T18:08:22;2.10;93.70
4826;DHT22;2427;50.934;6.776;2023-02-08T18:10:49;2.00;95.40
4826;DHT22;2427;50.934;6.776;2023-02-08T18:13:14;1.90;96.10
4826;DHT22;2427;50.934;6.776;2023-02-08T18:15:41;1.80;98.70
4826;DHT22;2427;50.934;6.776;2023-02-08T18:18:07;1.80;99.90
4826;DHT22;2427;50.934;6.776;2023-02-08T18:20:33;1.80;99.90
4826;DHT22;2427;50.934;6.776;2023-02-08T18:22:59;1.70;99.90
4826;DHT22;2427;50.934;6.776;2023-02-08T18:25:24;1.60;99.90
4826;DHT22;2427;50.934;6.776;2023-02-08T18:27:50;1.60;99.90
4826;DHT22;2427;50.934;6.776;2023-02-08T18:30:15;1.50;99.90
4826;DHT22;2427;50.934;6.776;2023-02-08T18:32:41;1.50;99.90
4826;DHT22;2427;50.934;6.776;2023-02-08T18:35:07;1.50;99.90
4826;DHT22;2427;50.934;6.776;2023-02-08T18:37:34;1.60;99.90
4826;DHT22;2427;50.934;6.776;2023-02-08T18:40:00;1.50;99.90
4826;DHT22;2427;50.934;6.776;2023-02-08T18:42:26;1.60;99.90
4826;DHT22;2427;50.934;6.776;2023-02-08T18:44:52;1.60;99.90
4826;DHT22;2427;50.934;6.776;2023-02-08T18:47:17;1.60;99.90
4826;DHT22;2427;50.934;6.776;2023-02-08T18:49:43;1.60;99.90
4826;DHT22;2427;50.934;6.776;2023-02-08T18:52:10;1.60;99.90
4826;DHT22;2427;50.934;6.776;2023-02-08T18:54:38;1.60;99.90
4826;DHT22;2427;50.934;6.776;2023-02-08T18:57:04;1.60;99.90
4826;DHT22;2427;50.934;6.776;2023-02-08T18:59:34;1.60;99.90
4826;DHT22;2427;50.934;6.776;2023-02-08T19:01:59;1.60;99.90
4826;DHT22;2427;50.934;6.776;2023-02-08T19:04:27;1.60;99.90
4826;DHT22;2427;50.934;6.776;2023-02-08T19:06:53;1.60;99.90
4826;DHT22;2427;50.934;6.776;2023-02-08T19:09:18;1.60;99.90
4826;DHT22;2427;50.934;6.776;2023-02-08T19:11:44;1.60;99.90
4826;DHT22;2427;50.934;6.776;2023-02-08T19:14:12;1.60;99.90
4826;DHT22;2427;50.934;6.776;2023-02-08T19:16:38;1.60;99.90
4826;DHT22;2427;50.934;6.776;2023-02-08T19:19:05;1.60;99.90
4826;DHT22;2427;50.934;6.776;2023-02-08T19:21:32;1.60;99.90
4826;DHT22;2427;50.934;6.776;2023-02-08T19:24:00;1.60;99.90
4826;DHT22;2427;50.934;6.776;2023-02-08T19:26:31;1.50;99.90
4826;DHT22;2427;50.934;6.776;2023-02-08T19:28:59;1.40;99.90